CDT,Max TemperatureF,Mean TemperatureF,Min TemperatureF,Max Dew PointF,MeanDew PointF,Min DewpointF,Max Humidity, Mean Humidity, Min Humidity, Max Sea Level PressureIn, Mean Sea Level PressureIn, Min Sea Level PressureIn, Max VisibilityMiles, Mean VisibilityMiles, Min VisibilityMiles, Max Wind SpeedMPH, Mean Wind SpeedMPH, Max Gust SpeedMPH,PrecipitationIn, CloudCover, Events, WindDirDegrees
2014-4-1,87,74,60,60,57,52,83,54,29,29.95,29.85,29.74,10,10,10,22,12,30,0.00,1,Thunderstorm,172
2014-4-2,84,76,69,64,63,61,82,63,46,29.81,29.73,29.64,10,10,7,21,15,26,0.00,2,,166
2014-4-3,94,77,60,68,48,12,92,45,9,30.00,29.69,29.62,10,9,7,25,15,36,0.00,1,,239
2014-4-4,70,54,40,32,28,21,71,37,16,30.22,30.12,30.02,10,10,10,21,11,26,0.00,0,,30
2014-4-5,66,58,50,38,29,21,56,36,18,30.12,30.01,29.91,10,10,10,22,8,30,0.00,4,,122
2014-4-6,55,50,46,52,46,39,96,83,57,29.93,29.86,29.74,10,9,3,18,8,24,0.25,7,Rain-Thunderstorm,70
2014-4-7,68,59,50,52,47,36,99,73,35,30.05,29.91,29.79,10,10,7,25,5,44,0.00,5,Rain-Thunderstorm,324
2014-4-8,76,61,46,45,33,26,78,40,16,30.24,30.15,30.06,10,10,10,18,9,29,0.00,0,,335
2014-4-9,89,70,51,34,31,26,51,27,10,30.18,30.08,29.95,10,10,10,21,10,32,0.00,0,,177
2014-4-10,97,82,67,45,38,27,42,23,9,29.96,29.87,29.76,10,10,10,28,20,37,0.00,0,,207
2014-4-11,92,76,61,56,49,41,76,40,19,29.98,29.89,29.83,10,10,10,17,10,25,0.00,0,,181
2014-4-12,90,78,66,59,56,54,73,50,30,29.88,29.79,29.68,10,10,10,24,16,31,0.00,0,,184
2014-4-13,89,75,60,63,57,42,77,54,21,29.79,29.66,29.55,10,10,10,29,18,37,0.00,2,Rain-Thunderstorm,186
2014-4-14,57,52,44,42,29,15,66,47,21,30.31,30.06,29.80,10,10,10,30,19,40,0.00,6,,354
2014-4-15,68,49,30,22,16,11,67,30,13,30.35,30.23,30.05,10,10,10,16,6,20,0.00,0,,206
2014-4-16,76,60,45,41,28,23,48,30,18,30.05,29.95,29.83,10,10,10,28,15,34,0.00,0,,160
2014-4-17,70,60,52,56,51,43,85,70,52,30.20,30.07,29.93,10,10,7,16,11,22,0.00,6,,138
2014-4-18,74,64,55,56,52,46,99,69,39,30.25,30.19,30.10,10,8,0,10,6,,0.00,6,Fog,144
2014-4-19,80,68,57,52,49,47,74,51,33,30.17,30.11,30.04,10,10,10,16,9,22,0.00,1,,155
2014-4-20,77,71,65,66,58,51,98,74,44,30.12,30.06,30.00,10,9,4,18,10,24,0.31,6,Rain-Thunderstorm,169
2014-4-21,86,76,65,65,60,53,95,64,32,30.06,29.99,29.95,10,9,5,17,9,22,0.00,4,,270
2014-4-22,86,72,57,60,51,40,98,56,21,30.11,30.03,29.92,10,10,5,13,4,20,0.00,0,,101
2014-4-23,92,77,63,60,55,50,76,49,25,29.94,29.80,29.63,10,9,5,31,13,45,0.00,0,Rain,165
2014-4-24,83,74,64,62,45,32,72,40,16,29.96,29.83,29.67,10,10,4,24,16,33,0.00,0,,305
2014-4-25,89,72,56,45,39,35,54,31,15,30.04,29.93,29.81,10,9,5,22,11,29,0.00,0,,147
2014-4-26,92,80,68,63,58,46,75,50,24,29.83,29.69,29.56,10,9,5,25,16,37,0.00,0,,167
2014-4-27,91,82,71,67,39,16,78,33,7,29.59,29.52,29.45,10,8,5,37,19,52,0.00,2,,243
2014-4-28,88,72,55,35,26,19,44,19,8,29.74,29.64,29.56,10,8,5,29,11,44,0.00,2,,290
2014-4-29,75,68,60,38,30,24,37,26,15,30.04,29.88,29.67,10,10,10,24,12,37,0.00,2,,340
2014-4-30,68,58,47,33,28,23,52,33,18,30.24,30.15,30.03,10,10,10,18,9,29,0.00,0,,344